sensor_id;sensor_type;location;lat;lon;timestamp;pressure;altitude;pressure_sealevel;temperature
37452;BMP280;23314;51.114;6.900;2023-05-17T04:02:32;102159.06;;;6.65
37452;BMP280;23314;51.114;6.900;2023-05-17T04:04:58;102164.59;;;6.88
37452;BMP280;23314;51.114;6.900;2023-05-17T04:07:23;102168.38;;;7.15
37452;BMP280;23314;51.114;6.900;2023-05-17T04:09:49;102172.91;;;7.47
37452;BMP280;23314;51.114;6.900;2023-05-17T04:12:14;102173.63;;;7.76
37452;BMP280;23314;51.114;6.900;2023-05-17T04:14:39;102177.69;;;8.05
37452;BMP280;23314;51.114;6.900;2023-05-17T04:17:05;102180.88;;;8.30
37452;BMP280;23314;51.114;6.900;2023-05-17T04:19:30;102182.09;;;8.52
37452;BMP280;23314;51.114;6.900;2023-05-17T04:21:56;102174.88;;;8.73
37452;BMP280;23314;51.114;6.900;2023-05-17T04:24:21;102175.94;;;8.88
37452;BMP280;23314;51.114;6.900;2023-05-17T04:26:46;102177.69;;;9.03
37452;BMP280;23314;51.114;6.900;2023-05-17T04:29:12;102181.31;;;9.14
37452;BMP280;23314;51.114;6.900;2023-05-17T04:31:37;102183.81;;;9.27
37452;BMP280;23314;51.114;6.900;2023-05-17T04:34:02;102187.38;;;9.38
37452;BMP280;23314;51.114;6.900;2023-05-17T04:36:27;102189.34;;;9.41
37452;BMP280;23314;51.114;6.900;2023-05-17T04:38:54;102187.97;;;9.51
37452;BMP280;23314;51.114;6.900;2023-05-17T04:41:19;102183.50;;;9.55
37452;BMP280;23314;51.114;6.900;2023-05-17T04:43:45;102189.69;;;9.63
37452;BMP280;23314;51.114;6.900;2023-05-17T04:46:10;102181.06;;;9.70
37452;BMP280;23314;51.114;6.900;2023-05-17T04:48:36;102186.97;;;9.83
37452;BMP280;23314;51.114;6.900;2023-05-17T04:51:03;102189.00;;;9.93
37452;BMP280;23314;51.114;6.900;2023-05-17T04:53:29;102193.69;;;10.03
37452;BMP280;23314;51.114;6.900;2023-05-17T04:55:58;102190.78;;;10.16
37452;BMP280;23314;51.114;6.900;2023-05-17T04:58:23;102193.59;;;10.26
37452;BMP280;23314;51.114;6.900;2023-05-17T05:00:49;102197.22;;;10.41
37452;BMP280;23314;51.114;6.900;2023-05-17T05:03:14;102199.63;;;10.54
37452;BMP280;23314;51.114;6.900;2023-05-17T05:05:40;102203.19;;;10.65
37452;BMP280;23314;51.114;6.900;2023-05-17T05:08:05;102205.16;;;10.72
37452;BMP280;23314;51.114;6.900;2023-05-17T05:10:31;102209.78;;;10.75
37452;BMP280;23314;51.114;6.900;2023-05-17T05:12:56;102218.56;;;10.79
37452;BMP280;23314;51.114;6.900;2023-05-17T05:15:22;102215.94;;;10.83
37452;BMP280;23314;51.114;6.900;2023-05-17T05:17:48;102224.78;;;10.87
37452;BMP280;23314;51.114;6.900;2023-05-17T05:20:13;102225.97;;;10.93
37452;BMP280;23314;51.114;6.900;2023-05-17T05:22:38;102231.41;;;11.00
37452;BMP280;23314;51.114;6.900;2023-05-17T05:25:04;102242.13;;;11.07
37452;BMP280;23314;51.114;6.900;2023-05-17T05:27:29;102236.06;;;11.11
37452;BMP280;23314;51.114;6.900;2023-05-17T05:29:55;102242.59;;;11.17
37452;BMP280;23314;51.114;6.900;2023-05-17T05:32:20;102244.22;;;11.29
37452;BMP280;23314;51.114;6.900;2023-05-17T05:34:45;102249.72;;;11.47
37452;BMP280;23314;51.114;6.900;2023-05-17T05:37:11;102255.16;;;11.57
37452;BMP280;23314;51.114;6.900;2023-05-17T05:39:36;102250.22;;;11.63
37452;BMP280;23314;51.114;6.900;2023-05-17T05:42:02;102257.97;;;11.79
37452;BMP280;23314;51.114;6.900;2023-05-17T05:44:28;102249.28;;;11.93
37452;BMP280;23314;51.114;6.900;2023-05-17T05:46:53;102270.34;;;12.02
37452;BMP280;23314;51.114;6.900;2023-05-17T05:49:19;102267.31;;;12.14
37452;BMP280;23314;51.114;6.900;2023-05-17T05:51:44;102273.50;;;12.29
37452;BMP280;23314;51.114;6.900;2023-05-17T05:54:12;102261.72;;;12.48
37452;BMP280;23314;51.114;6.900;2023-05-17T05:56:37;102270.59;;;12.60
37452;BMP280;23314;51.114;6.900;2023-05-17T05:59:02;102266.78;;;12.68
37452;BMP280;23314;51.114;6.900;2023-05-17T06:01:28;102267.56;;;12.76
37452;BMP280;23314;51.114;6.900;2023-05-17T06:03:53;102270.66;;;12.81
37452;BMP280;23314;51.114;6.900;2023-05-17T06:06:19;102274.06;;;12.78
37452;BMP280;23314;51.114;6.900;2023-05-17T06:08:45;102272.19;;;12.82
37452;BMP280;23314;51.114;6.900;2023-05-17T06:11:12;102270.63;;;12.99
37452;BMP280;23314;51.114;6.900;2023-05-17T06:13:37;102273.72;;;13.12
37452;BMP280;23314;51.114;6.900;2023-05-17T06:16:03;102287.50;;;13.00
37452;BMP280;23314;51.114;6.900;2023-05-17T06:18:29;102281.34;;;12.88
37452;BMP280;23314;51.114;6.900;2023-05-17T06:20:55;102278.31;;;12.90
37452;BMP280;23314;51.114;6.900;2023-05-17T06:23:20;102276.78;;;13.03
37452;BMP280;23314;51.114;6.900;2023-05-17T06:25:45;102287.91;;;13.24
37452;BMP280;23314;51.114;6.900;2023-05-17T06:28:10;102282.91;;;13.47
37452;BMP280;23314;51.114;6.900;2023-05-17T06:30:36;102289.44;;;13.32
37452;BMP280;23314;51.114;6.900;2023-05-17T06:33:01;102287.53;;;13.40
37452;BMP280;23314;51.114;6.900;2023-05-17T06:35:26;102281.00;;;13.19
37452;BMP280;23314;51.114;6.900;2023-05-17T06:37:52;102286.34;;;13.01
37452;BMP280;23314;51.114;6.900;2023-05-17T06:40:17;102280.22;;;12.93
37452;BMP280;23314;51.114;6.900;2023-05-17T06:42:42;102282.47;;;12.84
37452;BMP280;23314;51.114;6.900;2023-05-17T06:45:08;102277.88;;;12.77
37452;BMP280;23314;51.114;6.900;2023-05-17T06:47:33;102295.13;;;12.76
37452;BMP280;23314;51.114;6.900;2023-05-17T06:49:59;102282.88;;;12.75
37452;BMP280;23314;51.114;6.900;2023-05-17T06:52:24;102284.78;;;12.78
37452;BMP280;23314;51.114;6.900;2023-05-17T06:54:50;102289.75;;;12.80
37452;BMP280;23314;51.114;6.900;2023-05-17T06:57:16;102292.44;;;12.87
37452;BMP280;23314;51.114;6.900;2023-05-17T06:59:41;102296.31;;;12.97
37452;BMP280;23314;51.114;6.900;2023-05-17T07:02:06;102301.28;;;13.13
37452;BMP280;23314;51.114;6.900;2023-05-17T07:04:32;102300.91;;;13.25
37452;BMP280;23314;51.114;6.900;2023-05-17T07:06:57;102302.81;;;13.25
37452;BMP280;23314;51.114;6.900;2023-05-17T07:09:22;102313.19;;;13.37
37452;BMP280;23314;51.114;6.900;2023-05-17T07:11:48;102312.78;;;13.46
37452;BMP280;23314;51.114;6.900;2023-05-17T07:14:13;102317.03;;;13.50
37452;BMP280;23314;51.114;6.900;2023-05-17T07:16:38;102315.09;;;13.47
37452;BMP280;23314;51.114;6.900;2023-05-17T07:19:04;102312.78;;;13.46
37452;BMP280;23314;51.114;6.900;2023-05-17T07:21:30;102319.69;;;13.50
37452;BMP280;23314;51.114;6.900;2023-05-17T07:23:56;102315.84;;;13.51
37452;BMP280;23314;51.114;6.900;2023-05-17T07:26:21;102321.59;;;13.50
37452;BMP280;23314;51.114;6.900;2023-05-17T07:28:47;102320.47;;;13.51
37452;BMP280;23314;51.114;6.900;2023-05-17T07:31:13;102325.44;;;13.49
37452;BMP280;23314;51.114;6.900;2023-05-17T07:33:38;102322.00;;;13.34
37452;BMP280;23314;51.114;6.900;2023-05-17T07:36:04;102329.25;;;13.26
37452;BMP280;23314;51.114;6.900;2023-05-17T07:38:30;102335.75;;;13.25
37452;BMP280;23314;51.114;6.900;2023-05-17T07:40:55;102334.25;;;13.28
37452;BMP280;23314;51.114;6.900;2023-05-17T07:43:21;102329.63;;;13.39
37452;BMP280;23314;51.114;6.900;2023-05-17T07:45:46;102338.06;;;13.48
37452;BMP280;23314;51.114;6.900;2023-05-17T07:48:12;102332.31;;;13.53
37452;BMP280;23314;51.114;6.900;2023-05-17T07:50:37;102339.97;;;13.59
37452;BMP280;23314;51.114;6.900;2023-05-17T07:53:02;102339.59;;;13.64
37452;BMP280;23314;51.114;6.900;2023-05-17T07:55:28;102343.03;;;13.75
37452;BMP280;23314;51.114;6.900;2023-05-17T07:57:53;102342.25;;;13.85
37452;BMP280;23314;51.114;6.900;2023-05-17T08:00:19;102347.59;;;14.00
37452;BMP280;23314;51.114;6.900;2023-05-17T08:02:44;102340.31;;;14.08
37452;BMP280;23314;51.114;6.900;2023-05-17T08:05:10;102337.56;;;14.26
37452;BMP280;23314;51.114;6.900;2023-05-17T08:07:36;102328.28;;;14.41
37452;BMP280;23314;51.114;6.900;2023-05-17T08:10:01;102337.41;;;14.62
37452;BMP280;23314;51.114;6.900;2023-05-17T08:12:26;102345.78;;;14.75
37452;BMP280;23314;51.114;6.900;2023-05-17T08:14:52;102340.03;;;14.76
37452;BMP280;23314;51.114;6.900;2023-05-17T08:17:17;102349.53;;;14.84
37452;BMP280;23314;51.114;6.900;2023-05-17T08:19:42;102349.94;;;14.86
37452;BMP280;23314;51.114;6.900;2023-05-17T08:22:07;102351.81;;;14.93
37452;BMP280;23314;51.114;6.900;2023-05-17T08:24:33;102343.75;;;14.90
37452;BMP280;23314;51.114;6.900;2023-05-17T08:26:58;102354.09;;;14.91
37452;BMP280;23314;51.114;6.900;2023-05-17T08:29:24;102359.94;;;14.82
37452;BMP280;23314;51.114;6.900;2023-05-17T08:31:49;102356.19;;;14.69
37452;BMP280;23314;51.114;6.900;2023-05-17T08:34:15;102358.53;;;14.63
37452;BMP280;23314;51.114;6.900;2023-05-17T08:36:40;102349.63;;;14.66
37452;BMP280;23314;51.114;6.900;2023-05-17T08:39:06;102354.25;;;14.69
37452;BMP280;23314;51.114;6.900;2023-05-17T08:41:32;102350.00;;;14.72
37452;BMP280;23314;51.114;6.900;2023-05-17T08:43:58;102352.31;;;14.74
37452;BMP280;23314;51.114;6.900;2023-05-17T08:46:24;102346.56;;;14.75
37452;BMP280;23314;51.114;6.900;2023-05-17T08:48:52;102352.69;;;14.76
37452;BMP280;23314;51.114;6.900;2023-05-17T08:51:18;102360.72;;;14.79
37452;BMP280;23314;51.114;6.900;2023-05-17T08:53:44;102356.44;;;14.93
37452;BMP280;23314;51.114;6.900;2023-05-17T08:56:13;102361.72;;;15.07
37452;BMP280;23314;51.114;6.900;2023-05-17T08:58:41;102360.06;;;15.24
37452;BMP280;23314;51.114;6.900;2023-05-17T09:01:07;102371.53;;;15.28
37452;BMP280;23314;51.114;6.900;2023-05-17T09:03:34;102364.78;;;15.06
37452;BMP280;23314;51.114;6.900;2023-05-17T09:05:59;102367.59;;;14.88
37452;BMP280;23314;51.114;6.900;2023-05-17T09:08:25;102361.41;;;14.91
37452;BMP280;23314;51.114;6.900;2023-05-17T09:10:52;102360.47;;;15.19
37452;BMP280;23314;51.114;6.900;2023-05-17T09:13:17;102353.00;;;15.41
37452;BMP280;23314;51.114;6.900;2023-05-17T09:15:45;102351.81;;;15.46
37452;BMP280;23314;51.114;6.900;2023-05-17T09:18:11;102375.63;;;15.47
37452;BMP280;23314;51.114;6.900;2023-05-17T09:20:36;102363.28;;;15.50
37452;BMP280;23314;51.114;6.900;2023-05-17T09:23:04;102361.81;;;15.83
37452;BMP280;23314;51.114;6.900;2023-05-17T09:25:30;102359.66;;;16.06
37452;BMP280;23314;51.114;6.900;2023-05-17T09:28:05;102363.53;;;16.01
37452;BMP280;23314;51.114;6.900;2023-05-17T09:30:35;102361.22;;;16.03
37452;BMP280;23314;51.114;6.900;2023-05-17T09:33:10;102357.38;;;16.04
37452;BMP280;23314;51.114;6.900;2023-05-17T09:35:36;102359.69;;;16.02
37452;BMP280;23314;51.114;6.900;2023-05-17T09:38:11;102366.34;;;15.90
37452;BMP280;23314;51.114;6.900;2023-05-17T09:40:42;102361.75;;;15.91
37452;BMP280;23314;51.114;6.900;2023-05-17T09:43:08;102364.38;;;15.98
37452;BMP280;23314;51.114;6.900;2023-05-17T09:45:34;102352.78;;;16.05
37452;BMP280;23314;51.114;6.900;2023-05-17T09:48:16;102350.34;;;16.14
37452;BMP280;23314;51.114;6.900;2023-05-17T09:50:47;102351.50;;;16.13
37452;BMP280;23314;51.114;6.900;2023-05-17T09:53:32;102353.09;;;16.10
37452;BMP280;23314;51.114;6.900;2023-05-17T09:56:03;102345.75;;;16.42
37452;BMP280;23314;51.114;6.900;2023-05-17T09:58:31;102352.56;;;16.77
37452;BMP280;23314;51.114;6.900;2023-05-17T10:01:05;102343.63;;;16.84
37452;BMP280;23314;51.114;6.900;2023-05-17T10:03:35;102347.81;;;16.88
37452;BMP280;23314;51.114;6.900;2023-05-17T10:06:07;102360.47;;;16.92
37452;BMP280;23314;51.114;6.900;2023-05-17T10:08:34;102345.69;;;17.00
37452;BMP280;23314;51.114;6.900;2023-05-17T10:11:07;102342.78;;;17.14
37452;BMP280;23314;51.114;6.900;2023-05-17T10:13:38;102359.31;;;17.16
37452;BMP280;23314;51.114;6.900;2023-05-17T10:16:05;102346.91;;;17.19
37452;BMP280;23314;51.114;6.900;2023-05-17T10:18:30;102341.09;;;17.20
37452;BMP280;23314;51.114;6.900;2023-05-17T10:20:57;102340.34;;;17.20
37452;BMP280;23314;51.114;6.900;2023-05-17T10:23:23;102344.03;;;17.30
37452;BMP280;23314;51.114;6.900;2023-05-17T10:25:48;102342.59;;;17.45
37452;BMP280;23314;51.114;6.900;2023-05-17T10:28:15;102327.47;;;17.51
37452;BMP280;23314;51.114;6.900;2023-05-17T10:30:42;102331.09;;;17.65
37452;BMP280;23314;51.114;6.900;2023-05-17T10:33:08;102327.06;;;17.73
37452;BMP280;23314;51.114;6.900;2023-05-17T10:35:34;102330.88;;;17.76
37452;BMP280;23314;51.114;6.900;2023-05-17T10:37:59;102325.34;;;17.63
37452;BMP280;23314;51.114;6.900;2023-05-17T10:40:27;102324.44;;;17.69
37452;BMP280;23314;51.114;6.900;2023-05-17T10:42:55;102324.13;;;18.04
37452;BMP280;23314;51.114;6.900;2023-05-17T10:45:23;102327.31;;;18.19
37452;BMP280;23314;51.114;6.900;2023-05-17T10:47:50;102340.19;;;18.11
37452;BMP280;23314;51.114;6.900;2023-05-17T10:50:23;102337.81;;;17.77
37452;BMP280;23314;51.114;6.900;2023-05-17T10:52:49;102336.63;;;17.58
37452;BMP280;23314;51.114;6.900;2023-05-17T10:55:20;102332.19;;;17.47
37452;BMP280;23314;51.114;6.900;2023-05-17T11:00:41;102337.09;;;17.52
37452;BMP280;23314;51.114;6.900;2023-05-17T11:03:20;102319.50;;;17.64
37452;BMP280;23314;51.114;6.900;2023-05-17T11:06:12;102318.03;;;17.80
37452;BMP280;23314;51.114;6.900;2023-05-17T11:09:05;102322.63;;;18.03
37452;BMP280;23314;51.114;6.900;2023-05-17T11:11:30;102319.34;;;17.92
37452;BMP280;23314;51.114;6.900;2023-05-17T11:13:56;102314.38;;;17.70
37452;BMP280;23314;51.114;6.900;2023-05-17T11:16:33;102328.72;;;17.67
37452;BMP280;23314;51.114;6.900;2023-05-17T11:19:06;102315.72;;;17.62
37452;BMP280;23314;51.114;6.900;2023-05-17T11:21:31;102303.88;;;17.55
37452;BMP280;23314;51.114;6.900;2023-05-17T11:24:00;102302.97;;;17.62
37452;BMP280;23314;51.114;6.900;2023-05-17T11:26:38;102301.59;;;17.94
37452;BMP280;23314;51.114;6.900;2023-05-17T11:29:08;102298.38;;;18.36
37452;BMP280;23314;51.114;6.900;2023-05-17T11:31:35;102300.22;;;18.55
37452;BMP280;23314;51.114;6.900;2023-05-17T11:34:02;102306.47;;;18.52
37452;BMP280;23314;51.114;6.900;2023-05-17T11:36:27;102307.91;;;18.40
37452;BMP280;23314;51.114;6.900;2023-05-17T11:39:10;102320.03;;;18.16
37452;BMP280;23314;51.114;6.900;2023-05-17T11:41:47;102318.38;;;18.02
37452;BMP280;23314;51.114;6.900;2023-05-17T11:44:13;102305.63;;;18.02
37452;BMP280;23314;51.114;6.900;2023-05-17T11:46:38;102308.97;;;18.27
37452;BMP280;23314;51.114;6.900;2023-05-17T11:49:07;102299.00;;;18.73
37452;BMP280;23314;51.114;6.900;2023-05-17T11:51:33;102312.94;;;18.88
37452;BMP280;23314;51.114;6.900;2023-05-17T11:53:59;102318.63;;;18.77
37452;BMP280;23314;51.114;6.900;2023-05-17T11:56:33;102308.91;;;18.63
37452;BMP280;23314;51.114;6.900;2023-05-17T11:58:58;102315.59;;;18.58
37452;BMP280;23314;51.114;6.900;2023-05-17T12:01:24;102319.78;;;18.43
37452;BMP280;23314;51.114;6.900;2023-05-17T12:03:55;102318.34;;;18.22
37452;BMP280;23314;51.114;6.900;2023-05-17T12:06:21;102305.25;;;18.20
37452;BMP280;23314;51.114;6.900;2023-05-17T12:08:49;102303.41;;;18.34
37452;BMP280;23314;51.114;6.900;2023-05-17T12:11:15;102298.03;;;18.50
37452;BMP280;23314;51.114;6.900;2023-05-17T12:13:42;102305.63;;;18.55
37452;BMP280;23314;51.114;6.900;2023-05-17T12:16:15;102299.47;;;18.71
37452;BMP280;23314;51.114;6.900;2023-05-17T12:18:42;102295.63;;;18.69
37452;BMP280;23314;51.114;6.900;2023-05-17T12:21:09;102310.13;;;18.62
37452;BMP280;23314;51.114;6.900;2023-05-17T12:23:36;102299.38;;;18.58
37452;BMP280;23314;51.114;6.900;2023-05-17T12:26:16;102309.31;;;18.45
37452;BMP280;23314;51.114;6.900;2023-05-17T12:28:51;102305.56;;;18.43
37452;BMP280;23314;51.114;6.900;2023-05-17T12:31:19;102296.91;;;18.64
37452;BMP280;23314;51.114;6.900;2023-05-17T12:33:45;102288.44;;;18.79
37452;BMP280;23314;51.114;6.900;2023-05-17T12:36:12;102282.34;;;18.91
37452;BMP280;23314;51.114;6.900;2023-05-17T12:38:42;102297.06;;;18.90
37452;BMP280;23314;51.114;6.900;2023-05-17T12:41:15;102290.66;;;18.67
37452;BMP280;23314;51.114;6.900;2023-05-17T12:43:43;102288.81;;;18.31
37452;BMP280;23314;51.114;6.900;2023-05-17T12:46:17;102292.88;;;18.23
37452;BMP280;23314;51.114;6.900;2023-05-17T12:48:44;102287.28;;;18.30
37452;BMP280;23314;51.114;6.900;2023-05-17T12:51:11;102283.22;;;18.38
37452;BMP280;23314;51.114;6.900;2023-05-17T12:53:41;102285.44;;;18.44
37452;BMP280;23314;51.114;6.900;2023-05-17T12:56:07;102286.72;;;18.55
37452;BMP280;23314;51.114;6.900;2023-05-17T12:58:33;102276.72;;;18.69
37452;BMP280;23314;51.114;6.900;2023-05-17T13:01:00;102288.59;;;18.88
37452;BMP280;23314;51.114;6.900;2023-05-17T13:03:26;102291.41;;;18.84
37452;BMP280;23314;51.114;6.900;2023-05-17T13:06:01;102296.31;;;18.73
37452;BMP280;23314;51.114;6.900;2023-05-17T13:08:29;102299.53;;;18.68
37452;BMP280;23314;51.114;6.900;2023-05-17T13:11:05;102297.09;;;18.57
37452;BMP280;23314;51.114;6.900;2023-05-17T13:13:32;102296.41;;;18.69
37452;BMP280;23314;51.114;6.900;2023-05-17T13:15:58;102291.66;;;18.90
37452;BMP280;23314;51.114;6.900;2023-05-17T13:18:25;102290.47;;;19.20
37452;BMP280;23314;51.114;6.900;2023-05-17T13:20:51;102297.41;;;19.21
37452;BMP280;23314;51.114;6.900;2023-05-17T13:23:17;102304.31;;;18.93
37452;BMP280;23314;51.114;6.900;2023-05-17T13:25:46;102292.78;;;18.76
37452;BMP280;23314;51.114;6.900;2023-05-17T13:28:11;102288.69;;;18.68
37452;BMP280;23314;51.114;6.900;2023-05-17T13:30:37;102285.31;;;18.64
37452;BMP280;23314;51.114;6.900;2023-05-17T13:33:03;102290.34;;;18.49
37452;BMP280;23314;51.114;6.900;2023-05-17T13:35:29;102287.63;;;18.32
37452;BMP280;23314;51.114;6.900;2023-05-17T13:37:56;102287.78;;;18.25
37452;BMP280;23314;51.114;6.900;2023-05-17T13:40:22;102280.69;;;18.31
37452;BMP280;23314;51.114;6.900;2023-05-17T13:42:49;102282.06;;;18.39
37452;BMP280;23314;51.114;6.900;2023-05-17T13:45:16;102279.03;;;18.37
37452;BMP280;23314;51.114;6.900;2023-05-17T13:47:42;102274.63;;;18.27
37452;BMP280;23314;51.114;6.900;2023-05-17T13:50:08;102277.84;;;18.22
37452;BMP280;23314;51.114;6.900;2023-05-17T13:52:34;102277.63;;;18.29
37452;BMP280;23314;51.114;6.900;2023-05-17T13:55:01;102278.78;;;18.32
37452;BMP280;23314;51.114;6.900;2023-05-17T13:57:28;102272.94;;;18.33
37452;BMP280;23314;51.114;6.900;2023-05-17T13:59:55;102279.59;;;18.29
37452;BMP280;23314;51.114;6.900;2023-05-17T14:02:24;102273.84;;;18.10
37452;BMP280;23314;51.114;6.900;2023-05-17T14:04:52;102270.91;;;18.21
37452;BMP280;23314;51.114;6.900;2023-05-17T14:07:18;102272.34;;;18.26
37452;BMP280;23314;51.114;6.900;2023-05-17T14:09:44;102275.28;;;18.15
37452;BMP280;23314;51.114;6.900;2023-05-17T14:12:11;102274.00;;;18.03
37452;BMP280;23314;51.114;6.900;2023-05-17T14:14:37;102265.66;;;17.97
37452;BMP280;23314;51.114;6.900;2023-05-17T14:17:04;102264.97;;;17.93
37452;BMP280;23314;51.114;6.900;2023-05-17T14:19:30;102261.09;;;17.94
37452;BMP280;23314;51.114;6.900;2023-05-17T14:21:57;102255.59;;;17.98
37452;BMP280;23314;51.114;6.900;2023-05-17T14:24:22;102262.25;;;18.10
37452;BMP280;23314;51.114;6.900;2023-05-17T14:26:48;102256.47;;;18.11
37452;BMP280;23314;51.114;6.900;2023-05-17T14:29:13;102267.44;;;18.20
37452;BMP280;23314;51.114;6.900;2023-05-17T14:31:39;102273.69;;;18.17
37452;BMP280;23314;51.114;6.900;2023-05-17T14:34:05;102266.59;;;18.07
37452;BMP280;23314;51.114;6.900;2023-05-17T14:36:31;102262.00;;;18.04
37452;BMP280;23314;51.114;6.900;2023-05-17T14:39:00;102253.91;;;18.04
37452;BMP280;23314;51.114;6.900;2023-05-17T14:41:25;102260.41;;;18.06
37452;BMP280;23314;51.114;6.900;2023-05-17T14:43:51;102254.16;;;18.10
37452;BMP280;23314;51.114;6.900;2023-05-17T14:46:16;102255.28;;;18.12
37452;BMP280;23314;51.114;6.900;2023-05-17T14:48:42;102238.72;;;18.10
37452;BMP280;23314;51.114;6.900;2023-05-17T14:51:07;102239.47;;;17.94
37452;BMP280;23314;51.114;6.900;2023-05-17T14:53:33;102252.22;;;17.94
37452;BMP280;23314;51.114;6.900;2023-05-17T14:55:58;102241.06;;;17.92
37452;BMP280;23314;51.114;6.900;2023-05-17T14:58:24;102242.91;;;17.95
37452;BMP280;23314;51.114;6.900;2023-05-17T15:00:52;102250.19;;;17.98
37452;BMP280;23314;51.114;6.900;2023-05-17T15:03:22;102249.78;;;17.99
37452;BMP280;23314;51.114;6.900;2023-05-17T15:05:55;102251.38;;;17.97
37452;BMP280;23314;51.114;6.900;2023-05-17T15:08:20;102252.47;;;17.99
37452;BMP280;23314;51.114;6.900;2023-05-17T15:10:49;102257.59;;;17.94
37452;BMP280;23314;51.114;6.900;2023-05-17T15:13:14;102262.16;;;17.97
37452;BMP280;23314;51.114;6.900;2023-05-17T15:15:42;102248.31;;;17.95
37452;BMP280;23314;51.114;6.900;2023-05-17T15:18:07;102246.47;;;17.92
37452;BMP280;23314;51.114;6.900;2023-05-17T15:20:35;102250.31;;;17.90
37452;BMP280;23314;51.114;6.900;2023-05-17T15:23:01;102245.22;;;17.96
37452;BMP280;23314;51.114;6.900;2023-05-17T15:25:26;102244.38;;;17.99
37452;BMP280;23314;51.114;6.900;2023-05-17T15:27:51;102256.28;;;18.02
37452;BMP280;23314;51.114;6.900;2023-05-17T15:30:17;102248.91;;;18.02
37452;BMP280;23314;51.114;6.900;2023-05-17T15:32:42;102247.31;;;18.05
37452;BMP280;23314;51.114;6.900;2023-05-17T15:35:08;102241.34;;;17.97
37452;BMP280;23314;51.114;6.900;2023-05-17T15:37:33;102244.03;;;17.97
37452;BMP280;23314;51.114;6.900;2023-05-17T15:40:07;102247.81;;;18.00
37452;BMP280;23314;51.114;6.900;2023-05-17T15:42:33;102248.66;;;17.97
37452;BMP280;23314;51.114;6.900;2023-05-17T15:44:59;102240.56;;;17.97
37452;BMP280;23314;51.114;6.900;2023-05-17T15:47:24;102243.63;;;17.99
37452;BMP280;23314;51.114;6.900;2023-05-17T15:49:49;102235.84;;;18.01
37452;BMP280;23314;51.114;6.900;2023-05-17T15:52:15;102240.41;;;18.04
37452;BMP280;23314;51.114;6.900;2023-05-17T15:54:40;102238.13;;;18.02
37452;BMP280;23314;51.114;6.900;2023-05-17T15:57:07;102248.59;;;18.00
37452;BMP280;23314;51.114;6.900;2023-05-17T15:59:32;102245.22;;;17.96
37452;BMP280;23314;51.114;6.900;2023-05-17T16:01:58;102232.63;;;17.89
37452;BMP280;23314;51.114;6.900;2023-05-17T16:04:23;102241.56;;;17.86
37452;BMP280;23314;51.114;6.900;2023-05-17T16:06:48;102238.94;;;17.83
37452;BMP280;23314;51.114;6.900;2023-05-17T16:09:14;102241.22;;;17.84
37452;BMP280;23314;51.114;6.900;2023-05-17T16:11:40;102238.88;;;17.86
37452;BMP280;23314;51.114;6.900;2023-05-17T16:14:05;102245.81;;;17.87
37452;BMP280;23314;51.114;6.900;2023-05-17T16:16:31;102243.59;;;17.82
37452;BMP280;23314;51.114;6.900;2023-05-17T16:18:56;102246.97;;;17.86
37452;BMP280;23314;51.114;6.900;2023-05-17T16:21:22;102240.31;;;17.91
37452;BMP280;23314;51.114;6.900;2023-05-17T16:23:47;102248.75;;;17.93
37452;BMP280;23314;51.114;6.900;2023-05-17T16:26:13;102248.31;;;17.95
37452;BMP280;23314;51.114;6.900;2023-05-17T16:28:39;102250.19;;;17.98
37452;BMP280;23314;51.114;6.900;2023-05-17T16:31:05;102246.50;;;18.08
37452;BMP280;23314;51.114;6.900;2023-05-17T16:33:30;102240.03;;;18.22
37452;BMP280;23314;51.114;6.900;2023-05-17T16:35:58;102244.22;;;18.39
37452;BMP280;23314;51.114;6.900;2023-05-17T16:38:24;102252.88;;;18.64
37452;BMP280;23314;51.114;6.900;2023-05-17T16:40:50;102244.31;;;18.82
37452;BMP280;23314;51.114;6.900;2023-05-17T16:43:15;102255.59;;;19.09
37452;BMP280;23314;51.114;6.900;2023-05-17T16:45:44;102249.28;;;19.42
37452;BMP280;23314;51.114;6.900;2023-05-17T16:48:11;102250.50;;;19.67
37452;BMP280;23314;51.114;6.900;2023-05-17T16:50:38;102252.28;;;20.34
37452;BMP280;23314;51.114;6.900;2023-05-17T16:53:03;102255.72;;;20.83
37452;BMP280;23314;51.114;6.900;2023-05-17T16:55:29;102260.53;;;21.32
37452;BMP280;23314;51.114;6.900;2023-05-17T16:57:54;102256.44;;;21.68
37452;BMP280;23314;51.114;6.900;2023-05-17T17:00:20;102254.69;;;21.93
37452;BMP280;23314;51.114;6.900;2023-05-17T17:02:46;102259.25;;;22.14
37452;BMP280;23314;51.114;6.900;2023-05-17T17:05:12;102257.63;;;22.35
37452;BMP280;23314;51.114;6.900;2023-05-17T17:07:41;102267.28;;;22.27
37452;BMP280;23314;51.114;6.900;2023-05-17T17:10:07;102262.66;;;21.78
37452;BMP280;23314;51.114;6.900;2023-05-17T17:12:32;102263.72;;;21.40
37452;BMP280;23314;51.114;6.900;2023-05-17T17:14:57;102273.41;;;21.19
37452;BMP280;23314;51.114;6.900;2023-05-17T17:17:23;102271.50;;;21.28
37452;BMP280;23314;51.114;6.900;2023-05-17T17:19:48;102264.38;;;21.53
37452;BMP280;23314;51.114;6.900;2023-05-17T17:22:13;102262.19;;;21.70
37452;BMP280;23314;51.114;6.900;2023-05-17T17:24:40;102272.63;;;21.81
37452;BMP280;23314;51.114;6.900;2023-05-17T17:27:05;102268.28;;;21.83
37452;BMP280;23314;51.114;6.900;2023-05-17T17:29:31;102273.00;;;21.92
37452;BMP280;23314;51.114;6.900;2023-05-17T17:31:58;102264.53;;;21.99
37452;BMP280;23314;51.114;6.900;2023-05-17T17:34:23;102270.59;;;22.13
37452;BMP280;23314;51.114;6.900;2023-05-17T17:36:49;102270.63;;;22.31
37452;BMP280;23314;51.114;6.900;2023-05-17T17:39:14;102270.31;;;22.20
37452;BMP280;23314;51.114;6.900;2023-05-17T17:41:42;102265.13;;;21.94
37452;BMP280;23314;51.114;6.900;2023-05-17T17:44:07;102258.94;;;21.94
37452;BMP280;23314;51.114;6.900;2023-05-17T17:46:33;102271.28;;;21.85
37452;BMP280;23314;51.114;6.900;2023-05-17T17:48:58;102263.09;;;21.76
37452;BMP280;23314;51.114;6.900;2023-05-17T17:51:23;102271.94;;;21.58
37452;BMP280;23314;51.114;6.900;2023-05-17T17:53:49;102281.06;;;21.33
37452;BMP280;23314;51.114;6.900;2023-05-17T17:56:16;102276.84;;;21.41
37452;BMP280;23314;51.114;6.900;2023-05-17T17:58:42;102276.91;;;21.50